Time;durP1;ratioP1;P1;durP2;ratioP2;P2;SDS_P1;SDS_P2;PMS_P1;PMS_P2;Temp;Humidity;BMP_temperature;BMP_pressure;BME280_temperature;BME280_humidity;BME280_pressure;Samples;Min_cycle;Max_cycle;Signal;HPM_P1;HPM_P2
2023/10/27 00:01:11;;;;;;;0.50;0.50;;;;;;;;;;5014878;28;20298;-85
2023/10/27 00:03:37;;;;;;;0.50;0.50;;;;;;;;;;5013620;28;20291;-85
2023/10/27 00:06:03;;;;;;;0.50;0.50;;;;;;;;;;5014036;28;20343;-86
2023/10/27 00:08:29;;;;;;;0.50;0.50;;;;;;;;;;5015032;28;20191;-85
2023/10/27 00:10:55;;;;;;;0.50;0.50;;;;;;;;;;5014702;28;20172;-84
2023/10/27 00:13:21;;;;;;;0.50;0.50;;;;;;;;;;5015206;28;20184;-85
2023/10/27 00:15:47;;;;;;;0.60;0.60;;;;;;;;;;5014222;28;20734;-84
2023/10/27 00:18:14;;;;;;;0.50;0.50;;;;;;;;;;5015695;28;20176;-84
2023/10/27 00:20:39;;;;;;;0.50;0.50;;;;;;;;;;5028773;28;20211;-84
2023/10/27 00:23:05;;;;;;;0.50;0.50;;;;;;;;;;5020578;28;20207;-84
2023/10/27 00:25:31;;;;;;;0.47;0.47;;;;;;;;;;5014702;28;20239;-83
2023/10/27 00:27:57;;;;;;;0.50;0.50;;;;;;;;;;5015075;28;20180;-84
2023/10/27 00:30:23;;;;;;;0.50;0.50;;;;;;;;;;5014503;28;20845;-86
2023/10/27 00:32:49;;;;;;;0.50;0.50;;;;;;;;;;5015348;28;20322;-83
2023/10/27 00:35:16;;;;;;;0.60;0.60;;;;;;;;;;5014466;28;20196;-84
2023/10/27 00:37:42;;;;;;;0.53;0.53;;;;;;;;;;5012531;28;20183;-84
2023/10/27 00:40:08;;;;;;;0.50;0.50;;;;;;;;;;5015063;28;20208;-83
2023/10/27 00:42:34;;;;;;;0.60;0.60;;;;;;;;;;5015490;28;20284;-85
2023/10/27 00:45:00;;;;;;;0.60;0.60;;;;;;;;;;5014117;28;20725;-86
2023/10/27 00:47:27;;;;;;;0.50;0.50;;;;;;;;;;5018040;28;20181;-84
2023/10/27 00:49:55;;;;;;;0.50;0.50;;;;;;;;;;5019923;28;20176;-85
2023/10/27 00:52:22;;;;;;;0.50;0.50;;;;;;;;;;5019969;28;20181;-84
2023/10/27 00:54:49;;;;;;;0.50;0.50;;;;;;;;;;5017925;28;20181;-84
2023/10/27 00:57:16;;;;;;;0.57;0.57;;;;;;;;;;5019781;28;20180;-83
2023/10/27 00:59:42;;;;;;;0.60;0.60;;;;;;;;;;5028209;28;20203;-82
2023/10/27 01:02:09;;;;;;;0.40;0.40;;;;;;;;;;5040733;28;20248;-82
2023/10/27 01:04:35;;;;;;;0.50;0.50;;;;;;;;;;5040419;28;20233;-83
2023/10/27 01:07:01;;;;;;;0.50;0.50;;;;;;;;;;5037381;28;20406;-87
2023/10/27 01:09:27;;;;;;;0.60;0.60;;;;;;;;;;5018586;28;20183;-86
2023/10/27 01:11:54;;;;;;;0.50;0.50;;;;;;;;;;5018027;28;20181;-87
2023/10/27 01:14:21;;;;;;;0.60;0.60;;;;;;;;;;5018695;28;20177;-86
2023/10/27 01:16:47;;;;;;;0.50;0.50;;;;;;;;;;5018828;28;20549;-87
2023/10/27 01:19:13;;;;;;;0.60;0.60;;;;;;;;;;5019407;28;20222;-87
2023/10/27 01:21:39;;;;;;;0.50;0.50;;;;;;;;;;5018674;28;20227;-87
2023/10/27 01:24:05;;;;;;;0.50;0.50;;;;;;;;;;5019165;28;20168;-84
2023/10/27 01:26:31;;;;;;;0.50;0.50;;;;;;;;;;5018701;28;20192;-86
2023/10/27 01:28:57;;;;;;;0.60;0.60;;;;;;;;;;5019608;28;20211;-87
2023/10/27 01:31:23;;;;;;;0.60;0.60;;;;;;;;;;5022383;28;20179;-84
2023/10/27 01:33:49;;;;;;;0.60;0.60;;;;;;;;;;5021333;28;20205;-84
2023/10/27 01:36:17;;;;;;;0.63;0.63;;;;;;;;;;5023261;28;20287;-86
2023/10/27 01:38:46;;;;;;;0.70;0.70;;;;;;;;;;5038795;28;20231;-85
2023/10/27 01:41:12;;;;;;;0.53;0.53;;;;;;;;;;5037415;28;20204;-87
2023/10/27 01:43:38;;;;;;;0.50;0.50;;;;;;;;;;5036566;28;20173;-84
2023/10/27 01:46:04;;;;;;;0.53;0.53;;;;;;;;;;5035361;28;20214;-86
2023/10/27 01:48:33;;;;;;;0.50;0.50;;;;;;;;;;5035444;28;20180;-86
2023/10/27 01:51:00;;;;;;;0.60;0.60;;;;;;;;;;5036115;28;20160;-84
2023/10/27 01:53:26;;;;;;;0.60;0.60;;;;;;;;;;5038106;28;20191;-85
2023/10/27 01:55:58;;;;;;;0.63;0.63;;;;;;;;;;5039517;28;20184;-82
2023/10/27 01:58:27;;;;;;;0.50;0.50;;;;;;;;;;5039815;28;20189;-84
2023/10/27 02:00:53;;;;;;;0.60;0.60;;;;;;;;;;5040193;28;20230;-85
2023/10/27 02:03:23;;;;;;;0.60;0.60;;;;;;;;;;5039804;28;20194;-81
2023/10/27 02:05:52;;;;;;;0.60;0.60;;;;;;;;;;5049586;28;20197;-83
2023/10/27 02:08:19;;;;;;;0.70;0.70;;;;;;;;;;5039836;28;20171;-85
2023/10/27 02:10:45;;;;;;;0.57;0.57;;;;;;;;;;5039792;28;20173;-84
2023/10/27 02:13:11;;;;;;;0.60;0.60;;;;;;;;;;5038127;28;20183;-84
2023/10/27 02:15:37;;;;;;;0.70;0.70;;;;;;;;;;5032582;28;20189;-83
2023/10/27 02:18:04;;;;;;;0.57;0.57;;;;;;;;;;5032587;28;20169;-85
2023/10/27 02:20:33;;;;;;;0.40;0.40;;;;;;;;;;5032351;28;20219;-84
2023/10/27 02:22:59;;;;;;;0.50;0.50;;;;;;;;;;5033831;28;20184;-83
2023/10/27 02:25:25;;;;;;;0.60;0.60;;;;;;;;;;5034888;28;20192;-84
2023/10/27 02:27:51;;;;;;;0.57;0.57;;;;;;;;;;5035199;28;20177;-83
2023/10/27 02:30:20;;;;;;;0.40;0.40;;;;;;;;;;5036241;28;20177;-84
2023/10/27 02:32:46;;;;;;;0.50;0.50;;;;;;;;;;5037327;28;20233;-84
2023/10/27 02:35:13;;;;;;;0.50;0.50;;;;;;;;;;5037612;28;20215;-85
2023/10/27 02:37:45;;;;;;;0.60;0.60;;;;;;;;;;5050699;28;20180;-85
2023/10/27 02:40:11;;;;;;;0.57;0.57;;;;;;;;;;5029724;28;20562;-85
2023/10/27 02:42:40;;;;;;;0.60;0.60;;;;;;;;;;5029835;28;20267;-84
2023/10/27 02:45:07;;;;;;;0.50;0.50;;;;;;;;;;5031404;28;20194;-86
2023/10/27 02:47:36;;;;;;;0.53;0.53;;;;;;;;;;5030883;28;20187;-85
2023/10/27 02:50:03;;;;;;;0.60;0.60;;;;;;;;;;5028453;28;20242;-86
2023/10/27 02:52:32;;;;;;;0.50;0.50;;;;;;;;;;5026487;28;20201;-84
2023/10/27 02:55:07;;;;;;;0.50;0.50;;;;;;;;;;5028322;28;20289;-84
2023/10/27 02:57:33;;;;;;;0.60;0.60;;;;;;;;;;5042856;28;20202;-84
2023/10/27 03:00:01;;;;;;;0.50;0.50;;;;;;;;;;5030125;28;20227;-84
2023/10/27 03:02:28;;;;;;;0.50;0.50;;;;;;;;;;5029271;28;20176;-85
2023/10/27 03:04:59;;;;;;;0.50;0.50;;;;;;;;;;5026557;28;20346;-85
2023/10/27 03:07:25;;;;;;;0.50;0.50;;;;;;;;;;5023690;28;20211;-85
2023/10/27 03:09:54;;;;;;;0.50;0.50;;;;;;;;;;5025870;28;20189;-85
2023/10/27 03:12:20;;;;;;;0.50;0.50;;;;;;;;;;5026759;28;20244;-83
2023/10/27 03:14:54;;;;;;;0.50;0.50;;;;;;;;;;5023737;28;20235;-85
2023/10/27 03:17:24;;;;;;;0.50;0.50;;;;;;;;;;5024028;28;20599;-83
2023/10/27 03:19:54;;;;;;;0.50;0.50;;;;;;;;;;5024583;28;20223;-83
2023/10/27 03:22:21;;;;;;;0.50;0.50;;;;;;;;;;5026821;28;20246;-85
2023/10/27 03:24:47;;;;;;;0.50;0.50;;;;;;;;;;5025393;28;20200;-86
2023/10/27 03:27:22;;;;;;;0.50;0.50;;;;;;;;;;5029075;28;20183;-85
2023/10/27 03:29:48;;;;;;;0.50;0.50;;;;;;;;;;5030268;28;20227;-84
2023/10/27 03:32:15;;;;;;;0.53;0.53;;;;;;;;;;5031947;28;20554;-83
2023/10/27 03:34:47;;;;;;;0.50;0.50;;;;;;;;;;5034090;28;20191;-82
2023/10/27 03:37:17;;;;;;;0.50;0.50;;;;;;;;;;5033149;28;20177;-84
2023/10/27 03:39:44;;;;;;;0.50;0.50;;;;;;;;;;5034600;28;20212;-84
2023/10/27 03:42:11;;;;;;;0.60;0.60;;;;;;;;;;5033860;28;20291;-83
2023/10/27 03:44:44;;;;;;;0.50;0.50;;;;;;;;;;5035811;28;20279;-82
2023/10/27 03:47:10;;;;;;;0.60;0.60;;;;;;;;;;5035692;28;20175;-84
2023/10/27 03:49:36;;;;;;;0.43;0.43;;;;;;;;;;5029623;28;20195;-88
2023/10/27 03:52:04;;;;;;;0.50;0.50;;;;;;;;;;5029716;28;20247;-86
2023/10/27 03:54:32;;;;;;;0.67;0.67;;;;;;;;;;5028872;28;20195;-87
2023/10/27 03:57:03;;;;;;;0.50;0.50;;;;;;;;;;5026713;28;20935;-87
2023/10/27 03:59:36;;;;;;;0.50;0.50;;;;;;;;;;5029425;28;20175;-87
2023/10/27 04:02:02;;;;;;;0.60;0.60;;;;;;;;;;5030689;28;20153;-87
2023/10/27 04:04:32;;;;;;;0.53;0.53;;;;;;;;;;5032437;28;20211;-84
2023/10/27 04:07:00;;;;;;;0.60;0.60;;;;;;;;;;5033866;28;20176;-83
2023/10/27 04:09:38;;;;;;;0.50;0.50;;;;;;;;;;5035462;28;20248;-85
2023/10/27 04:12:08;;;;;;;0.53;0.53;;;;;;;;;;5043937;28;20259;-86
2023/10/27 04:14:55;;;;;;;0.50;0.50;;;;;;;;;;5033616;28;20307;-85
2023/10/27 04:17:22;;;;;;;0.60;0.60;;;;;;;;;;5033581;28;20216;-84
2023/10/27 04:19:50;;;;;;;0.60;0.60;;;;;;;;;;5028700;28;20236;-86
2023/10/27 04:22:17;;;;;;;0.70;0.70;;;;;;;;;;5031366;28;20184;-85
2023/10/27 04:24:44;;;;;;;0.70;0.70;;;;;;;;;;5029528;28;20181;-85
2023/10/27 04:27:10;;;;;;;0.60;0.60;;;;;;;;;;5028858;28;20817;-86
2023/10/27 04:29:37;;;;;;;0.70;0.70;;;;;;;;;;5029989;28;20238;-86
2023/10/27 04:32:04;;;;;;;0.70;0.70;;;;;;;;;;5020395;28;20180;-85
2023/10/27 04:34:31;;;;;;;0.50;0.50;;;;;;;;;;5019617;28;20656;-86
2023/10/27 04:36:57;;;;;;;0.57;0.57;;;;;;;;;;5017829;28;20208;-86
2023/10/27 04:39:23;;;;;;;0.70;0.70;;;;;;;;;;5030870;28;20204;-84
2023/10/27 04:41:53;;;;;;;0.60;0.60;;;;;;;;;;5020308;28;20199;-86
2023/10/27 04:44:22;;;;;;;0.70;0.70;;;;;;;;;;5019048;28;20172;-86
2023/10/27 04:46:49;;;;;;;0.60;0.60;;;;;;;;;;5018764;28;20564;-85
2023/10/27 04:49:15;;;;;;;0.60;0.60;;;;;;;;;;5014516;28;20181;-84
2023/10/27 04:51:41;;;;;;;0.60;0.60;;;;;;;;;;5031448;28;20188;-84
2023/10/27 04:54:07;;;;;;;0.60;0.60;;;;;;;;;;5028869;28;20175;-82
2023/10/27 04:56:34;;;;;;;0.60;0.60;;;;;;;;;;5035637;28;20264;-82
2023/10/27 04:59:03;;;;;;;0.57;0.57;;;;;;;;;;5036826;28;20172;-86
2023/10/27 05:01:30;;;;;;;0.60;0.60;;;;;;;;;;5025783;28;20220;-85
2023/10/27 05:03:56;;;;;;;0.70;0.70;;;;;;;;;;5027576;28;20211;-84
2023/10/27 05:06:22;;;;;;;0.67;0.67;;;;;;;;;;5035426;28;20260;-85
2023/10/27 05:08:50;;;;;;;0.70;0.70;;;;;;;;;;5052441;28;20176;-87
2023/10/27 05:11:17;;;;;;;0.67;0.67;;;;;;;;;;5015165;28;20729;-86
2023/10/27 05:13:43;;;;;;;0.60;0.60;;;;;;;;;;5014512;28;20188;-87
2023/10/27 05:16:09;;;;;;;0.60;0.60;;;;;;;;;;5016027;28;20207;-86
2023/10/27 05:18:35;;;;;;;0.50;0.50;;;;;;;;;;5014045;28;20180;-87
2023/10/27 05:21:01;;;;;;;0.60;0.60;;;;;;;;;;5017479;28;20213;-86
2023/10/27 05:23:27;;;;;;;0.60;0.60;;;;;;;;;;5003204;28;20200;-87
2023/10/27 05:25:53;;;;;;;0.50;0.50;;;;;;;;;;5010832;28;20200;-84
2023/10/27 05:28:20;;;;;;;0.60;0.60;;;;;;;;;;5012476;28;20180;-84
2023/10/27 05:30:50;;;;;;;0.50;0.50;;;;;;;;;;5011441;28;20185;-87
2023/10/27 05:33:16;;;;;;;0.60;0.60;;;;;;;;;;5017611;28;20585;-85
2023/10/27 05:35:43;;;;;;;0.50;0.50;;;;;;;;;;5017669;28;20573;-85
2023/10/27 05:38:09;;;;;;;0.60;0.60;;;;;;;;;;5018368;28;20192;-81
2023/10/27 05:40:35;;;;;;;0.40;0.40;;;;;;;;;;5017007;28;20208;-88
2023/10/27 05:43:04;;;;;;;0.60;0.60;;;;;;;;;;5019071;28;20181;-87
2023/10/27 05:45:30;;;;;;;0.67;0.67;;;;;;;;;;5017348;28;20287;-86
2023/10/27 05:47:56;;;;;;;0.60;0.60;;;;;;;;;;5021953;28;20173;-83
2023/10/27 05:50:22;;;;;;;0.60;0.60;;;;;;;;;;5038045;28;20188;-84
2023/10/27 05:52:48;;;;;;;0.50;0.50;;;;;;;;;;5038009;28;20165;-84
2023/10/27 05:55:17;;;;;;;0.60;0.60;;;;;;;;;;5037707;28;20212;-86
2023/10/27 05:57:44;;;;;;;0.67;0.67;;;;;;;;;;5028549;28;20172;-85
2023/10/27 06:00:11;;;;;;;0.60;0.60;;;;;;;;;;5011496;28;20316;-87
2023/10/27 06:02:37;;;;;;;0.50;0.50;;;;;;;;;;5008968;28;20173;-89
2023/10/27 06:05:03;;;;;;;0.50;0.50;;;;;;;;;;4999993;28;20733;-85
2023/10/27 06:07:29;;;;;;;0.57;0.57;;;;;;;;;;5007185;28;20204;-89
2023/10/27 06:09:55;;;;;;;0.57;0.57;;;;;;;;;;5012758;28;20187;-90
2023/10/27 06:12:20;;;;;;;0.60;0.60;;;;;;;;;;5014181;28;20184;-91
2023/10/27 06:14:46;;;;;;;0.60;0.60;;;;;;;;;;5005420;28;20276;-87
2023/10/27 06:17:13;;;;;;;0.60;0.60;;;;;;;;;;5007262;28;20181;-88
2023/10/27 06:19:39;;;;;;;0.60;0.60;;;;;;;;;;5006195;28;20173;-89
2023/10/27 06:22:05;;;;;;;0.60;0.60;;;;;;;;;;5009756;28;20181;-91
2023/10/27 06:24:32;;;;;;;0.50;0.50;;;;;;;;;;5016951;28;20187;-90
2023/10/27 06:26:58;;;;;;;0.63;0.63;;;;;;;;;;5005553;28;20193;-87
2023/10/27 06:29:24;;;;;;;0.50;0.50;;;;;;;;;;5009232;28;20192;-89
2023/10/27 06:31:50;;;;;;;0.50;0.50;;;;;;;;;;5013141;28;20239;-88
2023/10/27 06:34:16;;;;;;;0.60;0.60;;;;;;;;;;5032202;28;20165;-84
2023/10/27 06:36:42;;;;;;;0.60;0.60;;;;;;;;;;5024877;28;20245;-85
2023/10/27 06:39:11;;;;;;;0.50;0.50;;;;;;;;;;5016812;28;20165;-89
2023/10/27 06:41:39;;;;;;;0.60;0.60;;;;;;;;;;5018236;28;20201;-89
2023/10/27 06:44:06;;;;;;;0.70;0.70;;;;;;;;;;5010477;28;20228;-85
2023/10/27 06:46:32;;;;;;;0.60;0.60;;;;;;;;;;5012312;28;20208;-85
2023/10/27 06:48:58;;;;;;;0.50;0.50;;;;;;;;;;5012481;28;20185;-82
2023/10/27 06:51:24;;;;;;;0.60;0.60;;;;;;;;;;5016426;28;20193;-88
2023/10/27 06:53:50;;;;;;;0.50;0.50;;;;;;;;;;5007278;28;20180;-86
2023/10/27 06:56:24;;;;;;;0.60;0.60;;;;;;;;;;5008970;28;20212;-88
2023/10/27 06:58:50;;;;;;;0.50;0.50;;;;;;;;;;5005073;28;20259;-83
2023/10/27 07:01:16;;;;;;;0.60;0.60;;;;;;;;;;5007280;28;20208;-87
2023/10/27 07:03:42;;;;;;;0.60;0.60;;;;;;;;;;5004209;28;20184;-86
2023/10/27 07:06:08;;;;;;;0.60;0.60;;;;;;;;;;4996077;28;20225;-87
2023/10/27 07:08:37;;;;;;;0.70;0.70;;;;;;;;;;4997713;28;20220;-88
2023/10/27 07:11:04;;;;;;;0.53;0.53;;;;;;;;;;4996313;28;20184;-85
2023/10/27 07:13:30;;;;;;;0.70;0.70;;;;;;;;;;5002284;28;20195;-86
2023/10/27 07:15:57;;;;;;;0.60;0.60;;;;;;;;;;4995616;28;20662;-84
2023/10/27 07:18:23;;;;;;;0.50;0.50;;;;;;;;;;4995328;28;20189;-87
2023/10/27 07:20:49;;;;;;;0.70;0.70;;;;;;;;;;4996507;28;20209;-84
2023/10/27 07:23:16;;;;;;;0.50;0.50;;;;;;;;;;4997445;28;20177;-87
2023/10/27 07:25:42;;;;;;;0.30;0.30;;;;;;;;;;4993450;28;20405;-86
2023/10/27 07:28:08;;;;;;;0.60;0.60;;;;;;;;;;4996749;28;20256;-87
2023/10/27 07:30:34;;;;;;;0.60;0.60;;;;;;;;;;4995004;28;20188;-87
2023/10/27 07:33:00;;;;;;;0.60;0.60;;;;;;;;;;4996311;28;20177;-87
2023/10/27 07:35:26;;;;;;;0.50;0.50;;;;;;;;;;5015639;28;20386;-85
2023/10/27 07:37:53;;;;;;;0.60;0.60;;;;;;;;;;5017188;28;20165;-83
2023/10/27 07:40:20;;;;;;;0.53;0.53;;;;;;;;;;5017039;28;20284;-85
2023/10/27 07:42:46;;;;;;;0.50;0.50;;;;;;;;;;5017499;28;20161;-82
2023/10/27 07:45:18;;;;;;;0.50;0.50;;;;;;;;;;5002628;28;20193;-90
2023/10/27 07:47:44;;;;;;;0.50;0.50;;;;;;;;;;5009473;28;20181;-87
2023/10/27 07:50:11;;;;;;;0.50;0.50;;;;;;;;;;4996072;28;20559;-88
2023/10/27 07:52:37;;;;;;;0.50;0.50;;;;;;;;;;4996799;28;20647;-86
2023/10/27 07:55:06;;;;;;;0.60;0.60;;;;;;;;;;4993311;28;20622;-86
2023/10/27 07:57:34;;;;;;;0.60;0.60;;;;;;;;;;4996768;28;20185;-83
2023/10/27 08:00:00;;;;;;;0.50;0.50;;;;;;;;;;4998252;28;20256;-85
2023/10/27 08:02:27;;;;;;;0.70;0.70;;;;;;;;;;5000279;28;20181;-83
2023/10/27 08:04:53;;;;;;;0.60;0.60;;;;;;;;;;4998233;28;20200;-80
2023/10/27 08:07:19;;;;;;;0.50;0.50;;;;;;;;;;4997521;28;20193;-85
2023/10/27 08:09:45;;;;;;;0.60;0.60;;;;;;;;;;4997909;28;20231;-84
2023/10/27 08:12:11;;;;;;;0.70;0.70;;;;;;;;;;4998163;28;20252;-85
2023/10/27 08:14:37;;;;;;;0.50;0.50;;;;;;;;;;4999143;28;20653;-86
2023/10/27 08:17:03;;;;;;;0.60;0.60;;;;;;;;;;5004160;28;20220;-87
2023/10/27 08:19:29;;;;;;;0.50;0.50;;;;;;;;;;5002362;28;20208;-88
2023/10/27 08:21:55;;;;;;;0.40;0.40;;;;;;;;;;4997982;28;20552;-87
2023/10/27 08:24:21;;;;;;;0.60;0.60;;;;;;;;;;4996784;28;20177;-88
2023/10/27 08:26:47;;;;;;;0.53;0.53;;;;;;;;;;4995960;28;20223;-86
2023/10/27 08:29:14;;;;;;;0.57;0.57;;;;;;;;;;4996352;28;20188;-84
2023/10/27 08:31:40;;;;;;;0.60;0.60;;;;;;;;;;4997355;28;20519;-90
2023/10/27 08:34:10;;;;;;;0.67;0.67;;;;;;;;;;4995975;28;20165;-86
2023/10/27 08:36:36;;;;;;;0.60;0.60;;;;;;;;;;4996908;28;20301;-89
2023/10/27 08:39:03;;;;;;;0.60;0.60;;;;;;;;;;4996515;28;20255;-85
2023/10/27 08:41:29;;;;;;;0.60;0.60;;;;;;;;;;4995175;28;20212;-86
2023/10/27 08:43:55;;;;;;;0.60;0.60;;;;;;;;;;4998539;28;20184;-84
2023/10/27 08:46:22;;;;;;;0.50;0.50;;;;;;;;;;5007974;28;20197;-86
2023/10/27 08:48:48;;;;;;;0.60;0.60;;;;;;;;;;5002251;28;20238;-84
2023/10/27 08:51:15;;;;;;;0.60;0.60;;;;;;;;;;5014194;28;20208;-88
2023/10/27 08:53:41;;;;;;;0.60;0.60;;;;;;;;;;5017405;28;20181;-85
2023/10/27 08:56:12;;;;;;;0.60;0.60;;;;;;;;;;5016096;28;20203;-87
2023/10/27 08:58:39;;;;;;;0.50;0.50;;;;;;;;;;5010099;28;20189;-89
2023/10/27 09:01:04;;;;;;;0.50;0.50;;;;;;;;;;5013928;28;20275;-83
2023/10/27 09:03:31;;;;;;;0.50;0.50;;;;;;;;;;5017339;28;20231;-84
2023/10/27 09:05:58;;;;;;;0.50;0.50;;;;;;;;;;5015501;28;20197;-85
2023/10/27 09:08:24;;;;;;;0.60;0.60;;;;;;;;;;5011197;28;20205;-85
2023/10/27 09:10:50;;;;;;;0.43;0.43;;;;;;;;;;5015111;28;20173;-83
2023/10/27 09:13:21;;;;;;;0.47;0.47;;;;;;;;;;5017432;28;20189;-85
2023/10/27 09:15:50;;;;;;;0.60;0.60;;;;;;;;;;5015588;28;20201;-85
2023/10/27 09:18:16;;;;;;;0.60;0.60;;;;;;;;;;5016648;28;20171;-84
2023/10/27 09:20:54;;;;;;;0.70;0.70;;;;;;;;;;5016629;28;20209;-85
2023/10/27 09:23:20;;;;;;;0.50;0.50;;;;;;;;;;5017748;28;20276;-83
2023/10/27 09:25:47;;;;;;;0.50;0.50;;;;;;;;;;5012803;28;20208;-84
2023/10/27 09:28:13;;;;;;;0.50;0.50;;;;;;;;;;5026444;28;20200;-84
2023/10/27 09:30:40;;;;;;;0.40;0.40;;;;;;;;;;5033791;28;20187;-84
2023/10/27 09:33:20;;;;;;;0.50;0.50;;;;;;;;;;5032585;28;20252;-84
2023/10/27 09:35:47;;;;;;;0.40;0.40;;;;;;;;;;5012332;28;20197;-84
2023/10/27 09:38:13;;;;;;;0.40;0.40;;;;;;;;;;5000239;28;20188;-84
2023/10/27 09:40:40;;;;;;;0.60;0.60;;;;;;;;;;5004602;28;20656;-85
2023/10/27 09:43:16;;;;;;;0.50;0.50;;;;;;;;;;5020811;28;20226;-86
2023/10/27 09:46:03;;;;;;;0.50;0.50;;;;;;;;;;5020929;28;20560;-85
2023/10/27 09:48:30;;;;;;;0.60;0.60;;;;;;;;;;5009455;28;20207;-83
2023/10/27 09:51:08;;;;;;;0.50;0.50;;;;;;;;;;5012225;28;20235;-84
2023/10/27 09:53:34;;;;;;;0.53;0.53;;;;;;;;;;5013730;28;20180;-86
2023/10/27 09:56:01;;;;;;;0.50;0.50;;;;;;;;;;5017557;28;20208;-88
2023/10/27 09:58:29;;;;;;;0.40;0.40;;;;;;;;;;5014695;28;20185;-87
2023/10/27 10:00:56;;;;;;;0.40;0.40;;;;;;;;;;5010994;28;20278;-88
2023/10/27 10:03:27;;;;;;;0.50;0.50;;;;;;;;;;5016117;28;20192;-87
2023/10/27 10:06:12;;;;;;;0.40;0.40;;;;;;;;;;5014249;28;20571;-87
2023/10/27 10:08:38;;;;;;;0.50;0.50;;;;;;;;;;5013732;28;20187;-85
2023/10/27 10:11:13;;;;;;;0.40;0.40;;;;;;;;;;5039359;28;20301;-85
2023/10/27 10:13:39;;;;;;;0.40;0.40;;;;;;;;;;5039910;28;20171;-84
2023/10/27 10:16:07;;;;;;;0.50;0.50;;;;;;;;;;5038118;28;20289;-86
2023/10/27 10:18:36;;;;;;;0.43;0.43;;;;;;;;;;5002918;28;20312;-90
2023/10/27 10:21:02;;;;;;;0.40;0.40;;;;;;;;;;5000797;28;20216;-89
2023/10/27 10:23:42;;;;;;;0.40;0.40;;;;;;;;;;5006234;28;20184;-84
2023/10/27 10:26:08;;;;;;;0.40;0.40;;;;;;;;;;5018834;28;20187;-92
2023/10/27 10:28:34;;;;;;;0.40;0.40;;;;;;;;;;5018328;28;20173;-86
2023/10/27 10:31:13;;;;;;;0.50;0.50;;;;;;;;;;5011376;28;20180;-84
2023/10/27 10:33:41;;;;;;;0.50;0.50;;;;;;;;;;5017390;28;20173;-85
2023/10/27 10:36:14;;;;;;;0.40;0.40;;;;;;;;;;5000078;28;20197;-90
2023/10/27 10:38:43;;;;;;;0.50;0.50;;;;;;;;;;5003494;28;20205;-85
2023/10/27 10:41:09;;;;;;;0.40;0.40;;;;;;;;;;4998677;28;20213;-91
2023/10/27 10:43:36;;;;;;;0.50;0.50;;;;;;;;;;4996355;28;20181;-85
2023/10/27 10:46:13;;;;;;;0.40;0.40;;;;;;;;;;4996049;28;20335;-86
2023/10/27 10:48:49;;;;;;;0.40;0.40;;;;;;;;;;4996794;28;20188;-84
2023/10/27 10:51:15;;;;;;;0.40;0.40;;;;;;;;;;5000373;28;20282;-84
2023/10/27 10:53:52;;;;;;;0.30;0.30;;;;;;;;;;5009397;28;20299;-85
2023/10/27 10:56:19;;;;;;;0.40;0.40;;;;;;;;;;5001612;28;20196;-85
2023/10/27 10:58:45;;;;;;;0.40;0.40;;;;;;;;;;5004204;28;20292;-87
2023/10/27 11:01:20;;;;;;;0.40;0.40;;;;;;;;;;5014263;28;20274;-83
2023/10/27 11:03:48;;;;;;;0.50;0.50;;;;;;;;;;5019397;28;20172;-85
2023/10/27 11:06:14;;;;;;;0.50;0.50;;;;;;;;;;5037107;28;20228;-87
2023/10/27 11:08:41;;;;;;;0.40;0.40;;;;;;;;;;5037332;28;20181;-85
2023/10/27 11:11:13;;;;;;;0.50;0.50;;;;;;;;;;5037013;28;20239;-86
2023/10/27 11:13:43;;;;;;;0.40;0.40;;;;;;;;;;5036269;28;20165;-84
2023/10/27 11:16:16;;;;;;;0.57;0.57;;;;;;;;;;5034229;28;20208;-86
2023/10/27 11:18:46;;;;;;;0.40;0.40;;;;;;;;;;5011246;28;20200;-83
2023/10/27 11:21:16;;;;;;;0.40;0.40;;;;;;;;;;4997466;28;20216;-86
2023/10/27 11:23:42;;;;;;;0.40;0.40;;;;;;;;;;4996524;28;20272;-86
2023/10/27 11:26:08;;;;;;;0.37;0.37;;;;;;;;;;4997280;28;20271;-88
2023/10/27 11:28:38;;;;;;;0.40;0.40;;;;;;;;;;4996738;28;20205;-87
2023/10/27 11:31:15;;;;;;;0.40;0.40;;;;;;;;;;4997870;28;20192;-86
2023/10/27 11:34:00;;;;;;;0.40;0.40;;;;;;;;;;4996603;28;20639;-86
2023/10/27 11:36:29;;;;;;;0.50;0.50;;;;;;;;;;4997080;28;20209;-86
2023/10/27 11:38:55;;;;;;;0.37;0.37;;;;;;;;;;5000447;28;20209;-84
2023/10/27 11:41:22;;;;;;;0.50;0.50;;;;;;;;;;4999864;28;20552;-84
2023/10/27 11:43:48;;;;;;;0.53;0.53;;;;;;;;;;5001330;28;20184;-84
2023/10/27 11:46:21;;;;;;;0.50;0.50;;;;;;;;;;5002104;28;20201;-83
2023/10/27 11:48:50;;;;;;;0.50;0.50;;;;;;;;;;5001481;28;20216;-83
2023/10/27 11:51:16;;;;;;;0.40;0.40;;;;;;;;;;5007330;28;20177;-85
2023/10/27 11:53:43;;;;;;;0.33;0.33;;;;;;;;;;5001465;28;20192;-83
2023/10/27 11:56:09;;;;;;;0.40;0.40;;;;;;;;;;4999533;28;20201;-84
2023/10/27 11:58:37;;;;;;;0.50;0.50;;;;;;;;;;5011081;28;20185;-85
2023/10/27 12:01:04;;;;;;;0.40;0.40;;;;;;;;;;5020210;28;20212;-85
2023/10/27 12:03:30;;;;;;;0.40;0.40;;;;;;;;;;5031495;28;20199;-87
2023/10/27 12:05:55;;;;;;;0.40;0.40;;;;;;;;;;5030117;28;20197;-82
2023/10/27 12:08:21;;;;;;;0.50;0.50;;;;;;;;;;5032555;28;20654;-86
2023/10/27 12:10:54;;;;;;;0.50;0.50;;;;;;;;;;5020938;28;20598;-84
2023/10/27 12:13:20;;;;;;;0.40;0.40;;;;;;;;;;5021018;28;20239;-85
2023/10/27 12:15:48;;;;;;;0.40;0.40;;;;;;;;;;5025675;28;20204;-85
2023/10/27 12:18:14;;;;;;;0.50;0.50;;;;;;;;;;5040137;28;20161;-82
2023/10/27 12:20:40;;;;;;;0.40;0.40;;;;;;;;;;5030348;28;20472;-82
2023/10/27 12:23:07;;;;;;;0.40;0.40;;;;;;;;;;5025101;28;20184;-82
2023/10/27 12:25:34;;;;;;;0.40;0.40;;;;;;;;;;5024498;28;20201;-82
2023/10/27 12:28:00;;;;;;;0.50;0.50;;;;;;;;;;5023863;28;20180;-82
2023/10/27 12:30:26;;;;;;;0.40;0.40;;;;;;;;;;5024448;28;20238;-81
2023/10/27 12:32:53;;;;;;;0.40;0.40;;;;;;;;;;5023609;28;20591;-83
2023/10/27 12:35:21;;;;;;;0.40;0.40;;;;;;;;;;5021457;28;20219;-82
2023/10/27 12:37:47;;;;;;;0.40;0.40;;;;;;;;;;5021432;28;20184;-84
2023/10/27 12:40:14;;;;;;;0.40;0.40;;;;;;;;;;5021609;28;20383;-80
2023/10/27 12:42:40;;;;;;;0.40;0.40;;;;;;;;;;5017734;28;20179;-86
2023/10/27 12:45:06;;;;;;;0.40;0.40;;;;;;;;;;5016815;28;20208;-82
2023/10/27 12:47:32;;;;;;;0.50;0.50;;;;;;;;;;5018205;28;20183;-84
2023/10/27 12:49:58;;;;;;;0.40;0.40;;;;;;;;;;5034028;28;20823;-81
2023/10/27 12:52:26;;;;;;;0.40;0.40;;;;;;;;;;5037756;28;20260;-81
2023/10/27 12:54:55;;;;;;;0.30;0.30;;;;;;;;;;5036885;28;20232;-80
2023/10/27 12:57:22;;;;;;;0.40;0.40;;;;;;;;;;5035494;28;20347;-82
2023/10/27 12:59:50;;;;;;;0.40;0.40;;;;;;;;;;5015202;28;20642;-83
2023/10/27 13:02:16;;;;;;;0.40;0.40;;;;;;;;;;5015310;28;20177;-83
2023/10/27 13:04:42;;;;;;;0.33;0.33;;;;;;;;;;5016066;28;20168;-84
2023/10/27 13:07:08;;;;;;;0.40;0.40;;;;;;;;;;5016283;28;20201;-89
2023/10/27 13:09:36;;;;;;;0.40;0.40;;;;;;;;;;5016790;28;20177;-85
2023/10/27 13:12:03;;;;;;;0.40;0.40;;;;;;;;;;5017046;28;20200;-86
2023/10/27 13:14:30;;;;;;;0.50;0.50;;;;;;;;;;5018278;28;20188;-86
2023/10/27 13:16:58;;;;;;;0.40;0.40;;;;;;;;;;5019132;28;20208;-83
2023/10/27 13:19:24;;;;;;;0.40;0.40;;;;;;;;;;5023381;28;20266;-84
2023/10/27 13:21:51;;;;;;;0.50;0.50;;;;;;;;;;5019853;28;20213;-83
2023/10/27 13:24:17;;;;;;;0.50;0.50;;;;;;;;;;5018875;28;20183;-82
2023/10/27 13:26:45;;;;;;;0.50;0.50;;;;;;;;;;5016917;28;20236;-84
2023/10/27 13:29:11;;;;;;;0.50;0.50;;;;;;;;;;5017240;28;20184;-84
2023/10/27 13:31:44;;;;;;;0.50;0.50;;;;;;;;;;5016707;28;20173;-87
2023/10/27 13:34:13;;;;;;;0.50;0.50;;;;;;;;;;5020743;28;20188;-86
2023/10/27 13:36:40;;;;;;;0.40;0.40;;;;;;;;;;5034490;28;20312;-82
2023/10/27 13:39:07;;;;;;;0.40;0.40;;;;;;;;;;5034582;28;20169;-84
2023/10/27 13:41:36;;;;;;;0.50;0.50;;;;;;;;;;5050320;28;20224;-84
2023/10/27 13:44:04;;;;;;;0.40;0.40;;;;;;;;;;5021896;28;20181;-87
2023/10/27 13:46:30;;;;;;;0.50;0.50;;;;;;;;;;5021640;28;20200;-84
2023/10/27 13:48:56;;;;;;;0.37;0.37;;;;;;;;;;5019579;28;20227;-86
2023/10/27 13:51:24;;;;;;;0.40;0.40;;;;;;;;;;5022414;28;20181;-85
2023/10/27 13:53:51;;;;;;;0.40;0.40;;;;;;;;;;5022781;28;20187;-82
2023/10/27 13:56:18;;;;;;;0.40;0.40;;;;;;;;;;5023712;28;20608;-82
2023/10/27 13:58:44;;;;;;;0.40;0.40;;;;;;;;;;5029237;28;20177;-86
2023/10/27 14:01:10;;;;;;;0.40;0.40;;;;;;;;;;5031284;28;20235;-84
2023/10/27 14:03:37;;;;;;;0.40;0.40;;;;;;;;;;5026901;28;20212;-82
2023/10/27 14:06:03;;;;;;;0.43;0.43;;;;;;;;;;5023574;28;20203;-83
2023/10/27 14:08:33;;;;;;;0.60;0.60;;;;;;;;;;5018384;28;20204;-83
2023/10/27 14:11:03;;;;;;;0.40;0.40;;;;;;;;;;5010080;28;20241;-88
2023/10/27 14:13:29;;;;;;;0.40;0.40;;;;;;;;;;5014860;28;20176;-88
2023/10/27 14:15:57;;;;;;;0.50;0.50;;;;;;;;;;5012886;28;20197;-83
2023/10/27 14:18:23;;;;;;;0.50;0.50;;;;;;;;;;5005061;28;20193;-83
2023/10/27 14:20:54;;;;;;;0.40;0.40;;;;;;;;;;5010373;28;20232;-85
2023/10/27 14:23:20;;;;;;;0.50;0.50;;;;;;;;;;5016886;28;20181;-82
2023/10/27 14:25:46;;;;;;;0.60;0.60;;;;;;;;;;5017240;28;20205;-82
2023/10/27 14:28:12;;;;;;;0.50;0.50;;;;;;;;;;5013141;28;20272;-86
2023/10/27 14:30:38;;;;;;;0.50;0.50;;;;;;;;;;5015633;28;20224;-82
2023/10/27 14:33:04;;;;;;;0.57;0.57;;;;;;;;;;5019344;28;20185;-82
2023/10/27 14:35:31;;;;;;;0.50;0.50;;;;;;;;;;5018456;28;20196;-79
2023/10/27 14:37:57;;;;;;;0.50;0.50;;;;;;;;;;5019913;28;20181;-81
2023/10/27 14:40:23;;;;;;;0.50;0.50;;;;;;;;;;5019123;28;20204;-82
2023/10/27 14:42:50;;;;;;;0.50;0.50;;;;;;;;;;5019811;28;20171;-79
2023/10/27 14:45:16;;;;;;;0.70;0.70;;;;;;;;;;5019027;28;20201;-80